Terminal Aerodrome Forecast
Issued by NWS Blacksburg, VA

Current Version | Previous Version | Graphics & Text | Print | Product List | Glossary On
Versions: 1 2 3 4 5 6 7 8 9 10 11 12 13 14 15 16 17 18 19 20 21 22 23 24 25 26 27 28 29 30 31 32
000
FTUS41 KRNK 100520
TAFBLF
TAF
KBLF 100520Z 1006/1106 29012G19KT 4SM -SHSN BR OVC011
      TEMPO 1006/1009 1 1/2SM -SHSN OVC009
     FM101200 29012G20KT 3SM -SHSN OVC014
     FM101600 29012G19KT 5SM -SHSN OVC014
     FM101900 29012G20KT P6SM -SHSN OVC020=

USA.gov is the U.S. government's official web portal to all federal, state and local government web resources and services.